Time;durP1;ratioP1;P1;durP2;ratioP2;P2;SDS_P1;SDS_P2;PMS_P1;PMS_P2;Temp;Humidity;BMP_temperature;BMP_pressure;BME280_temperature;BME280_humidity;BME280_pressure;Samples;Min_cycle;Max_cycle;Signal;HPM_P1;HPM_P2
2022/11/22 00:00:03;;;;;;;12.70;10.13;;;;;;;0.66;100.00;99746.88;4976444;28;20245;-55
2022/11/22 00:02:30;;;;;;;17.13;11.37;;;;;;;0.72;100.00;99738.41;4978040;28;20240;-55
2022/11/22 00:04:58;;;;;;;15.93;11.33;;;;;;;0.44;100.00;99727.44;4966679;28;20242;-56
2022/11/22 00:07:25;;;;;;;12.47;10.03;;;;;;;0.53;100.00;99733.66;4973129;28;20664;-56
2022/11/22 00:09:52;;;;;;;12.80;10.87;;;;;;;0.63;100.00;99735.59;4974387;28;20264;-56
2022/11/22 00:12:19;;;;;;;17.33;12.20;;;;;;;0.19;100.00;99720.84;4976265;28;20229;-54
2022/11/22 00:14:46;;;;;;;13.40;10.83;;;;;;;0.09;100.00;99730.91;4973140;28;20697;-54
2022/11/22 00:17:12;;;;;;;13.00;11.10;;;;;;;-0.12;100.00;99719.19;4974962;28;20347;-56
2022/11/22 00:19:40;;;;;;;14.30;10.83;;;;;;;0.06;100.00;99725.66;4979218;28;20320;-55
2022/11/22 00:22:09;;;;;;;16.00;10.17;;;;;;;0.30;100.00;99708.19;4982563;28;20836;-55
2022/11/22 00:24:35;;;;;;;16.07;11.70;;;;;;;0.30;100.00;99715.94;4971746;28;20323;-55
2022/11/22 00:27:02;;;;;;;13.87;10.80;;;;;;;0.51;100.00;99706.94;4976160;28;20308;-55
2022/11/22 00:29:29;;;;;;;13.23;10.27;;;;;;;0.15;100.00;99705.25;4983695;28;20300;-55
2022/11/22 00:31:56;;;;;;;13.33;10.23;;;;;;;0.28;100.00;99696.97;4973162;28;20242;-57
2022/11/22 00:34:23;;;;;;;13.13;10.07;;;;;;;0.39;100.00;99695.50;4981757;28;20233;-55
2022/11/22 00:36:50;;;;;;;14.90;11.57;;;;;;;-0.31;100.00;99692.06;4979590;28;21859;-54
2022/11/22 00:39:18;;;;;;;14.37;11.70;;;;;;;-0.33;100.00;99698.03;4978549;28;20241;-55
2022/11/22 00:41:45;;;;;;;15.47;11.20;;;;;;;-0.55;100.00;99701.75;4980027;28;20245;-55
2022/11/22 00:44:12;;;;;;;15.33;12.10;;;;;;;-0.65;100.00;99699.75;4977176;28;20631;-55
2022/11/22 00:46:39;;;;;;;16.13;11.37;;;;;;;-0.05;100.00;99700.44;4982891;28;20238;-55
2022/11/22 00:49:06;;;;;;;14.50;11.27;;;;;;;0.17;100.00;99694.09;4979041;28;20714;-56
2022/11/22 00:51:32;;;;;;;14.93;11.60;;;;;;;-0.35;100.00;99700.56;4983117;28;20758;-56
2022/11/22 00:53:59;;;;;;;16.37;12.60;;;;;;;0.19;100.00;99694.16;4975819;28;20225;-56
2022/11/22 00:56:27;;;;;;;16.93;12.33;;;;;;;0.69;100.00;99690.13;4977776;28;20245;-55
2022/11/22 00:58:54;;;;;;;18.53;12.20;;;;;;;0.34;100.00;99696.22;4976634;28;20232;-54
2022/11/22 01:01:21;;;;;;;16.33;11.20;;;;;;;0.57;100.00;99691.59;4978319;28;20240;-56
2022/11/22 01:03:48;;;;;;;16.50;12.33;;;;;;;0.62;100.00;99693.41;4978678;28;20246;-55
2022/11/22 01:06:15;;;;;;;14.97;11.97;;;;;;;0.18;100.00;99684.69;4981252;28;20259;-57
2022/11/22 01:08:41;;;;;;;18.23;11.77;;;;;;;-0.16;100.00;99677.81;4972692;28;20824;-55
2022/11/22 01:11:09;;;;;;;16.97;12.37;;;;;;;-0.01;100.00;99683.34;4978323;28;20259;-55
2022/11/22 01:13:37;;;;;;;13.57;11.93;;;;;;;-0.17;100.00;99687.28;4973951;28;20240;-55
2022/11/22 01:16:06;;;;;;;18.60;13.07;;;;;;;-0.13;100.00;99683.06;4981030;28;20337;-55
2022/11/22 01:18:33;;;;;;;19.90;13.27;;;;;;;0.04;100.00;99678.31;4977746;28;20695;-55
2022/11/22 01:21:01;;;;;;;14.50;11.87;;;;;;;0.00;100.00;99685.09;4980252;28;20302;-56
2022/11/22 01:23:27;;;;;;;18.77;12.57;;;;;;;0.32;100.00;99678.13;4978452;28;20232;-55
2022/11/22 01:25:54;;;;;;;15.70;12.43;;;;;;;-0.06;100.00;99687.53;4980830;28;20383;-56
2022/11/22 01:28:21;;;;;;;19.43;12.10;;;;;;;0.39;100.00;99681.72;4976644;28;20655;-56
2022/11/22 01:30:52;;;;;;;18.13;11.70;;;;;;;0.68;100.00;99677.19;4974385;28;20466;-55
2022/11/22 01:33:19;;;;;;;15.53;11.77;;;;;;;0.26;100.00;99680.56;4979931;28;20233;-55
2022/11/22 01:35:47;;;;;;;17.90;12.43;;;;;;;0.14;100.00;99681.16;4987643;28;20297;-57
2022/11/22 01:38:13;;;;;;;17.77;11.97;;;;;;;0.01;100.00;99686.84;4988437;28;20314;-56
2022/11/22 01:40:41;;;;;;;17.73;13.43;;;;;;;0.06;100.00;99694.69;4992362;28;20233;-57
2022/11/22 01:43:15;;;;;;;18.07;12.60;;;;;;;0.04;100.00;99697.25;4989851;28;20236;-57
2022/11/22 01:45:45;;;;;;;15.77;12.23;;;;;;;0.49;100.00;99699.13;4987298;28;20242;-55
2022/11/22 01:48:26;;;;;;;16.07;12.93;;;;;;;0.48;100.00;99690.53;4971313;28;20224;-56
2022/11/22 01:50:57;;;;;;;16.70;12.00;;;;;;;0.64;100.00;99696.06;4981337;28;20275;-55
2022/11/22 01:53:27;;;;;;;15.27;12.27;;;;;;;0.37;100.00;99686.84;4983286;28;20284;-56
2022/11/22 01:55:55;;;;;;;17.90;12.70;;;;;;;0.37;100.00;99692.00;4985088;28;20232;-55
2022/11/22 01:58:22;;;;;;;14.17;11.50;;;;;;;0.39;100.00;99699.78;4980118;28;20233;-56
2022/11/22 02:00:50;;;;;;;15.00;11.57;;;;;;;0.22;100.00;99681.31;4985571;28;20302;-56
2022/11/22 02:03:20;;;;;;;16.60;11.97;;;;;;;0.51;100.00;99688.84;4979516;28;20261;-54
2022/11/22 02:05:47;;;;;;;15.37;11.83;;;;;;;0.54;100.00;99683.78;4985248;28;20246;-55
2022/11/22 02:08:18;;;;;;;18.20;12.73;;;;;;;0.20;100.00;99686.44;4983332;28;20881;-58
2022/11/22 02:10:48;;;;;;;17.27;12.17;;;;;;;0.21;100.00;99684.72;4982657;28;20298;-57
2022/11/22 02:13:16;;;;;;;17.57;12.83;;;;;;;0.20;100.00;99680.41;4979903;28;20228;-55
2022/11/22 02:15:43;;;;;;;16.23;12.17;;;;;;;0.07;100.00;99678.38;4985413;28;20281;-56
2022/11/22 02:18:10;;;;;;;17.43;13.10;;;;;;;0.10;100.00;99681.03;4981149;28;20257;-55
2022/11/22 02:20:39;;;;;;;15.47;12.27;;;;;;;0.11;100.00;99680.22;4977467;28;20229;-54
2022/11/22 02:23:10;;;;;;;16.70;12.80;;;;;;;0.02;100.00;99678.25;4980374;28;20236;-55
2022/11/22 02:25:49;;;;;;;15.90;11.87;;;;;;;0.31;100.00;99672.91;4979501;28;20240;-56
2022/11/22 02:28:16;;;;;;;16.13;11.93;;;;;;;0.58;100.00;99675.25;4975729;28;20744;-55
2022/11/22 02:30:43;;;;;;;20.03;12.60;;;;;;;0.84;100.00;99666.34;4980589;28;20245;-56
2022/11/22 02:33:10;;;;;;;17.17;13.37;;;;;;;0.24;100.00;99658.97;4981822;28;20288;-56
2022/11/22 02:35:37;;;;;;;16.23;12.33;;;;;;;0.02;100.00;99656.75;4985052;28;20322;-55
2022/11/22 02:38:06;;;;;;;17.43;13.40;;;;;;;0.08;100.00;99659.47;4982118;28;20238;-56
2022/11/22 02:40:36;;;;;;;15.20;12.27;;;;;;;0.80;100.00;99649.03;4979503;28;20319;-55
2022/11/22 02:43:06;;;;;;;15.57;12.10;;;;;;;0.69;100.00;99647.94;4975471;28;21736;-55
2022/11/22 02:45:33;;;;;;;17.00;12.70;;;;;;;0.31;100.00;99645.38;4973260;28;20978;-55
2022/11/22 02:48:06;;;;;;;18.83;12.43;;;;;;;0.30;100.00;99645.34;4980544;28;20234;-56
2022/11/22 02:50:33;;;;;;;17.23;12.67;;;;;;;0.42;100.00;99637.88;4980408;28;20233;-55
2022/11/22 02:53:00;;;;;;;17.37;11.80;;;;;;;0.14;100.00;99636.38;4976429;28;20232;-55
2022/11/22 02:55:26;;;;;;;18.53;13.83;;;;;;;0.47;100.00;99637.16;4980985;28;20325;-55
2022/11/22 02:57:53;;;;;;;17.00;13.33;;;;;;;-0.31;100.00;99642.22;4981480;28;20294;-55
2022/11/22 03:00:21;;;;;;;21.20;13.80;;;;;;;0.08;100.00;99638.84;4983545;28;20738;-56
2022/11/22 03:02:48;;;;;;;21.50;14.03;;;;;;;-0.26;100.00;99640.59;4982981;28;20869;-55
2022/11/22 03:05:15;;;;;;;21.37;14.40;;;;;;;-0.41;100.00;99640.22;4983350;28;20256;-55
2022/11/22 03:07:42;;;;;;;15.73;12.60;;;;;;;-0.38;100.00;99630.00;4975986;28;20242;-55
2022/11/22 03:10:10;;;;;;;18.47;13.30;;;;;;;-0.19;100.00;99645.06;4981736;28;20233;-55
2022/11/22 03:12:36;;;;;;;17.77;13.17;;;;;;;-0.17;100.00;99627.94;4983294;28;20266;-56
2022/11/22 03:15:04;;;;;;;17.60;12.90;;;;;;;-0.27;100.00;99620.81;4981671;28;20231;-55
2022/11/22 03:17:32;;;;;;;21.00;13.50;;;;;;;-0.04;100.00;99627.38;4980289;28;20230;-57
2022/11/22 03:19:59;;;;;;;20.27;13.03;;;;;;;0.21;100.00;99620.19;4976405;28;20291;-55
2022/11/22 03:22:26;;;;;;;18.57;13.40;;;;;;;-0.02;100.00;99636.03;4983682;28;20236;-54
2022/11/22 03:24:53;;;;;;;18.43;13.43;;;;;;;-0.37;100.00;99617.13;4980030;28;20240;-55
2022/11/22 03:27:20;;;;;;;20.20;14.40;;;;;;;0.19;100.00;99620.19;4982812;28;20236;-56
2022/11/22 03:29:47;;;;;;;18.37;12.87;;;;;;;0.13;100.00;99620.03;4980722;28;20298;-58
2022/11/22 03:32:13;;;;;;;17.80;13.53;;;;;;;0.21;100.00;99615.94;4982508;28;20319;-55
2022/11/22 03:34:41;;;;;;;19.30;13.33;;;;;;;-0.56;100.00;99631.28;4983022;28;20256;-55
2022/11/22 03:37:08;;;;;;;18.70;13.87;;;;;;;-0.37;100.00;99624.88;4981359;28;20237;-56
2022/11/22 03:39:35;;;;;;;19.30;14.40;;;;;;;0.27;100.00;99622.06;4979537;28;20237;-57
2022/11/22 03:42:02;;;;;;;18.93;14.40;;;;;;;0.34;100.00;99619.63;4980486;28;20702;-56
2022/11/22 03:44:29;;;;;;;19.53;13.87;;;;;;;0.22;100.00;99609.94;4980011;28;20233;-56
2022/11/22 03:46:56;;;;;;;18.87;13.63;;;;;;;0.01;100.00;99604.28;4985063;28;20766;-55
2022/11/22 03:49:22;;;;;;;19.97;14.27;;;;;;;-0.36;100.00;99612.84;4978856;28;20242;-55
2022/11/22 03:51:51;;;;;;;20.67;13.60;;;;;;;-0.31;100.00;99595.78;4985097;28;20240;-56
2022/11/22 03:54:18;;;;;;;22.40;14.77;;;;;;;-0.08;100.00;99604.91;4981595;28;20289;-54
2022/11/22 03:56:45;;;;;;;17.43;12.37;;;;;;;0.08;100.00;99600.13;4973033;28;20269;-57
2022/11/22 03:59:11;;;;;;;21.90;14.70;;;;;;;0.08;100.00;99605.28;4984911;28;20233;-55
2022/11/22 04:01:39;;;;;;;21.17;14.43;;;;;;;-0.06;100.00;99598.09;4982063;28;20309;-56
2022/11/22 04:04:05;;;;;;;19.10;14.97;;;;;;;-0.30;100.00;99597.53;4978642;28;20249;-56
2022/11/22 04:06:32;;;;;;;19.63;14.17;;;;;;;0.06;100.00;99599.22;4982859;28;20271;-56
2022/11/22 04:09:01;;;;;;;19.93;13.87;;;;;;;-0.06;100.00;99598.09;4974378;28;20314;-55
2022/11/22 04:11:28;;;;;;;22.80;15.73;;;;;;;-0.37;100.00;99604.25;4979253;28;20234;-55
2022/11/22 04:16:39;;;;;;;21.13;14.83;;;;;;;-0.25;100.00;99590.75;4977554;28;20255;-55
2022/11/22 04:19:06;;;;;;;21.47;14.87;;;;;;;-0.23;100.00;99589.09;4974928;28;20338;-55
2022/11/22 04:21:34;;;;;;;20.67;14.67;;;;;;;0.25;100.00;99588.47;4982740;28;20751;-55
2022/11/22 04:26:49;;;;;;;20.60;13.57;;;;;;;0.46;100.00;99591.53;4979378;28;20282;-55
2022/11/22 04:29:17;;;;;;;19.97;14.50;;;;;;;-0.07;100.00;99600.63;4976137;28;20252;-55
2022/11/22 04:34:43;;;;;;;19.43;14.00;;;;;;;-0.01;100.00;99600.78;4920963;29;20275;-56
2022/11/22 04:37:10;;;;;;;21.67;14.97;;;;;;;0.46;100.00;99604.44;4921087;29;20675;-56
2022/11/22 04:39:38;;;;;;;18.77;14.20;;;;;;;0.26;100.00;99610.88;4943511;28;20241;-55
2022/11/22 04:44:50;;;;;;;21.90;16.03;;;;;;;0.44;100.00;99590.59;4976066;28;20243;-57
2022/11/22 04:49:59;;;;;;;26.13;14.93;;;;;;;0.06;100.00;99581.16;4977838;28;20629;-54
2022/11/22 04:55:12;;;;;;;21.50;15.60;;;;;;;-0.02;100.00;99574.13;4980153;28;20733;-55
2022/11/22 04:57:38;;;;;;;22.40;15.33;;;;;;;-0.06;100.00;99587.78;4979792;28;20258;-55
2022/11/22 05:00:07;;;;;;;24.43;16.43;;;;;;;-0.13;100.00;99579.88;4974982;28;20240;-56
2022/11/22 05:02:33;;;;;;;22.07;14.53;;;;;;;-0.10;100.00;99575.66;4977176;28;20301;-55
2022/11/22 05:05:00;;;;;;;25.33;16.37;;;;;;;0.18;100.00;99571.13;4982771;28;20288;-56
2022/11/22 05:07:27;;;;;;;27.07;17.73;;;;;;;0.03;100.00;99575.91;4982127;28;20240;-55
2022/11/22 05:09:54;;;;;;;25.13;14.70;;;;;;;0.15;100.00;99583.94;4980660;28;20249;-56
2022/11/22 05:12:22;;;;;;;24.10;15.97;;;;;;;0.25;100.00;99578.16;4985737;28;20320;-57
2022/11/22 05:14:49;;;;;;;27.70;15.43;;;;;;;0.43;100.00;99572.50;4986657;28;20278;-56
2022/11/22 05:17:16;;;;;;;23.43;16.03;;;;;;;0.59;100.00;99574.53;4979246;28;20234;-56
2022/11/22 05:19:43;;;;;;;23.70;16.33;;;;;;;0.34;100.00;99570.59;4982691;28;20287;-56
2022/11/22 05:22:10;;;;;;;25.97;15.70;;;;;;;0.12;100.00;99568.41;4984101;28;20882;-56
2022/11/22 05:24:36;;;;;;;24.47;15.93;;;;;;;0.11;100.00;99564.09;4982870;28;20233;-55
2022/11/22 05:27:03;;;;;;;23.30;15.63;;;;;;;0.24;100.00;99571.22;4979214;28;20794;-55
2022/11/22 05:29:31;;;;;;;25.67;16.33;;;;;;;0.04;100.00;99557.91;4982774;28;20247;-55
2022/11/22 05:31:58;;;;;;;25.47;16.10;;;;;;;0.21;100.00;99573.75;4974852;28;20244;-55
2022/11/22 05:34:25;;;;;;;25.17;16.60;;;;;;;0.02;100.00;99567.31;4981268;28;20236;-56
2022/11/22 05:36:52;;;;;;;24.90;16.13;;;;;;;0.14;100.00;99579.59;4980690;28;20240;-57
2022/11/22 05:39:19;;;;;;;28.30;18.53;;;;;;;0.05;100.00;99579.41;4976952;28;20229;-55
2022/11/22 05:41:55;;;;;;;24.80;16.47;;;;;;;0.25;100.00;99583.31;4982429;28;20273;-55
2022/11/22 05:44:22;;;;;;;26.50;16.07;;;;;;;0.30;100.00;99580.81;4980682;28;20325;-56
2022/11/22 05:46:51;;;;;;;25.57;16.43;;;;;;;0.39;100.00;99583.63;4982042;28;20611;-56
2022/11/22 05:49:18;;;;;;;22.90;16.03;;;;;;;0.55;100.00;99577.03;4972236;28;20232;-56
2022/11/22 05:51:45;;;;;;;22.27;15.77;;;;;;;0.28;100.00;99583.38;4980167;28;20284;-54
2022/11/22 05:54:12;;;;;;;28.77;17.53;;;;;;;0.20;100.00;99579.75;4985614;28;20257;-54
2022/11/22 05:56:39;;;;;;;24.53;16.07;;;;;;;0.16;100.00;99583.09;4982301;28;20303;-55
2022/11/22 05:59:06;;;;;;;24.53;15.70;;;;;;;0.44;100.00;99589.72;4985118;28;20623;-55
2022/11/22 06:01:33;;;;;;;27.37;17.50;;;;;;;0.19;100.00;99593.50;4977509;28;20238;-56
2022/11/22 06:04:01;;;;;;;25.10;16.83;;;;;;;0.35;100.00;99598.16;4979924;28;20249;-56
2022/11/22 06:06:28;;;;;;;24.67;16.03;;;;;;;0.29;100.00;99594.59;4983521;28;20427;-57
2022/11/22 06:08:55;;;;;;;22.87;14.70;;;;;;;0.25;100.00;99603.97;4985888;28;20618;-55
2022/11/22 06:11:23;;;;;;;27.60;15.80;;;;;;;0.18;100.00;99599.50;4977552;28;20241;-54
2022/11/22 06:13:51;;;;;;;24.47;15.97;;;;;;;0.26;100.00;99605.69;4981617;28;20328;-56
2022/11/22 06:16:18;;;;;;;23.07;15.43;;;;;;;0.69;100.00;99606.59;4989827;28;20240;-55
2022/11/22 06:18:45;;;;;;;24.23;16.27;;;;;;;1.04;100.00;99609.88;4987815;28;20296;-55
2022/11/22 06:21:15;;;;;;;26.77;14.53;;;;;;;0.57;100.00;99611.53;4992042;28;20275;-55
2022/11/22 06:23:42;;;;;;;24.83;17.57;;;;;;;0.69;100.00;99604.03;4987324;28;20826;-55
2022/11/22 06:26:11;;;;;;;27.37;17.03;;;;;;;0.36;100.00;99606.78;4983920;28;20292;-55
2022/11/22 06:28:39;;;;;;;23.93;16.47;;;;;;;0.48;100.00;99613.06;4984017;28;20240;-54
2022/11/22 06:31:08;;;;;;;23.10;16.20;;;;;;;0.69;100.00;99616.94;4980190;28;20630;-54
2022/11/22 06:33:35;;;;;;;23.87;15.20;;;;;;;1.01;100.00;99608.94;4980295;28;20247;-56
2022/11/22 06:36:03;;;;;;;23.73;15.73;;;;;;;1.24;100.00;99625.78;4980362;28;20256;-56
2022/11/22 06:38:31;;;;;;;21.27;15.13;;;;;;;1.03;100.00;99618.47;4982419;28;20786;-56
2022/11/22 06:41:00;;;;;;;24.30;15.97;;;;;;;0.25;100.00;99614.28;4977307;28;20232;-55
2022/11/22 06:43:28;;;;;;;23.37;15.30;;;;;;;-0.02;100.00;99620.56;4982758;28;20234;-55
2022/11/22 06:45:55;;;;;;;25.80;16.10;;;;;;;-0.41;100.00;99628.22;4984564;28;20290;-57
2022/11/22 06:48:22;;;;;;;24.33;15.93;;;;;;;0.06;100.00;99622.44;4981074;28;20244;-56
2022/11/22 06:50:49;;;;;;;31.00;17.10;;;;;;;0.38;100.00;99626.59;4983683;28;20603;-56
2022/11/22 06:53:15;;;;;;;29.53;15.73;;;;;;;-0.09;100.00;99629.00;4980340;28;20321;-55
2022/11/22 06:55:44;;;;;;;22.47;15.67;;;;;;;0.46;100.00;99630.25;4976794;28;20241;-54
2022/11/22 06:58:10;;;;;;;23.50;15.03;;;;;;;0.72;100.00;99635.09;4983947;28;20230;-55
2022/11/22 07:00:37;;;;;;;27.73;15.53;;;;;;;0.36;100.00;99628.31;4983169;28;20707;-55
2022/11/22 07:03:04;;;;;;;27.33;17.10;;;;;;;0.70;100.00;99626.41;4980864;28;20320;-55
2022/11/22 07:05:31;;;;;;;26.07;16.37;;;;;;;0.48;100.00;99623.38;4980198;28;20690;-56
2022/11/22 07:07:58;;;;;;;23.07;15.67;;;;;;;0.56;100.00;99627.84;4978439;28;20245;-54
2022/11/22 07:10:24;;;;;;;22.97;15.80;;;;;;;0.64;100.00;99634.94;4980209;28;20232;-55
2022/11/22 07:12:52;;;;;;;25.17;16.27;;;;;;;0.60;100.00;99637.44;4981451;28;20585;-54
2022/11/22 07:15:19;;;;;;;25.67;16.83;;;;;;;0.19;100.00;99634.78;4980225;28;20252;-55
2022/11/22 07:17:46;;;;;;;25.77;16.93;;;;;;;0.14;100.00;99644.13;4982996;28;20719;-55
2022/11/22 07:20:13;;;;;;;24.07;14.73;;;;;;;0.26;100.00;99644.41;4978374;28;20317;-57
2022/11/22 07:22:40;;;;;;;27.83;17.73;;;;;;;0.34;100.00;99647.16;4978804;28;20655;-56
2022/11/22 07:25:07;;;;;;;25.57;17.03;;;;;;;0.32;100.00;99644.56;4980673;28;20241;-56
2022/11/22 07:27:34;;;;;;;22.37;15.00;;;;;;;1.22;100.00;99650.72;4976410;28;20230;-55
2022/11/22 07:30:02;;;;;;;26.27;16.47;;;;;;;1.08;100.00;99644.41;4981784;28;20247;-56
2022/11/22 07:32:29;;;;;;;22.67;15.67;;;;;;;1.05;100.00;99652.09;4979028;28;20234;-55
2022/11/22 07:34:56;;;;;;;20.03;15.07;;;;;;;0.94;100.00;99654.47;4982024;28;20234;-55
2022/11/22 07:37:23;;;;;;;25.30;16.27;;;;;;;0.77;100.00;99656.69;4981675;28;20238;-56
2022/11/22 07:39:49;;;;;;;26.60;15.57;;;;;;;1.02;100.00;99657.19;4987282;28;20265;-56
2022/11/22 07:42:16;;;;;;;21.97;15.50;;;;;;;1.01;100.00;99652.88;4984658;28;20233;-57
2022/11/22 07:44:43;;;;;;;22.00;14.47;;;;;;;0.76;100.00;99654.97;4981391;28;20244;-55
2022/11/22 07:47:11;;;;;;;23.27;14.97;;;;;;;0.65;100.00;99643.53;4974454;28;20237;-56
2022/11/22 07:49:38;;;;;;;22.87;16.23;;;;;;;0.66;100.00;99632.38;4980130;28;20320;-57
2022/11/22 07:52:05;;;;;;;23.57;14.77;;;;;;;0.60;100.00;99633.13;4980971;28;20245;-54
2022/11/22 07:54:32;;;;;;;22.63;15.37;;;;;;;0.81;100.00;99643.03;4976704;28;20789;-54
2022/11/22 07:56:59;;;;;;;24.87;14.87;;;;;;;0.70;100.00;99621.25;4984112;28;20316;-58
2022/11/22 07:59:26;;;;;;;27.50;16.10;;;;;;;0.71;100.00;99620.44;4981268;28;20232;-57
2022/11/22 08:01:52;;;;;;;24.37;16.53;;;;;;;0.98;100.00;99611.47;4987947;28;20312;-55
2022/11/22 08:04:21;;;;;;;26.47;16.30;;;;;;;0.57;100.00;99611.53;4976610;28;20323;-55
2022/11/22 08:06:47;;;;;;;24.73;15.87;;;;;;;0.59;100.00;99609.84;4979472;28;20288;-55
2022/11/22 08:09:14;;;;;;;26.40;15.27;;;;;;;0.45;100.00;99601.78;4973886;28;20320;-54
2022/11/22 08:11:41;;;;;;;21.90;14.97;;;;;;;0.56;100.00;99605.50;4973590;28;20290;-57
2022/11/22 08:14:08;;;;;;;24.33;15.07;;;;;;;0.83;100.00;99602.59;4973992;28;20329;-56
2022/11/22 08:16:35;;;;;;;25.00;16.67;;;;;;;0.78;100.00;99591.31;4973333;28;20238;-56
2022/11/22 08:19:01;;;;;;;24.20;16.10;;;;;;;0.51;100.00;99591.59;4975544;28;20276;-55
2022/11/22 08:21:30;;;;;;;23.50;16.17;;;;;;;0.54;100.00;99598.56;4971728;28;20238;-55
2022/11/22 08:23:58;;;;;;;26.10;17.20;;;;;;;0.34;100.00;99592.94;4980215;28;20244;-55
2022/11/22 08:26:25;;;;;;;29.03;17.30;;;;;;;0.28;100.00;99591.13;4978937;28;20232;-55
2022/11/22 08:28:51;;;;;;;24.60;17.03;;;;;;;0.42;100.00;99592.28;4976570;28;20326;-55
2022/11/22 08:31:19;;;;;;;23.53;16.13;;;;;;;0.58;100.00;99592.59;4979687;28;20310;-54
2022/11/22 08:33:46;;;;;;;24.00;15.50;;;;;;;0.52;100.00;99595.91;4974752;28;20244;-55
2022/11/22 08:36:14;;;;;;;27.97;16.13;;;;;;;0.57;100.00;99588.28;4980474;28;20659;-56
2022/11/22 08:38:42;;;;;;;25.77;16.50;;;;;;;0.44;100.00;99590.59;4978980;28;20233;-56
2022/11/22 08:41:09;;;;;;;24.90;16.97;;;;;;;0.57;100.00;99590.88;4983503;28;20240;-56
2022/11/22 08:43:36;;;;;;;29.00;18.77;;;;;;;0.35;100.00;99594.69;4981972;28;20233;-55
2022/11/22 08:46:03;;;;;;;27.10;18.07;;;;;;;0.47;100.00;99603.56;4988431;28;20299;-56
2022/11/22 08:48:32;;;;;;;27.80;16.87;;;;;;;0.67;100.00;99606.59;4985441;28;20708;-56
2022/11/22 08:51:00;;;;;;;27.47;17.30;;;;;;;0.70;100.00;99608.34;4987905;28;20766;-55
2022/11/22 08:53:29;;;;;;;24.53;16.17;;;;;;;1.05;100.00;99628.84;4986237;28;20902;-54
2022/11/22 08:55:59;;;;;;;27.70;16.77;;;;;;;0.87;100.00;99635.38;4985947;28;20229;-56
2022/11/22 08:58:26;;;;;;;30.50;17.73;;;;;;;0.68;100.00;99634.16;4984215;28;20311;-57
2022/11/22 09:00:53;;;;;;;26.33;16.37;;;;;;;0.68;100.00;99630.69;4984477;28;20233;-56
2022/11/22 09:03:19;;;;;;;31.50;19.07;;;;;;;0.75;100.00;99642.91;4978595;28;20230;-56
2022/11/22 09:05:46;;;;;;;27.93;17.43;;;;;;;0.64;100.00;99641.81;4985249;28;20273;-57
2022/11/22 09:08:13;;;;;;;31.30;18.77;;;;;;;0.70;100.00;99649.66;4985995;28;20248;-55
2022/11/22 09:10:40;;;;;;;25.43;18.47;;;;;;;0.47;100.00;99644.03;4986897;28;20317;-57
2022/11/22 09:13:08;;;;;;;27.70;17.47;;;;;;;0.52;100.00;99644.13;4976431;28;20670;-56
2022/11/22 09:15:35;;;;;;;30.33;19.03;;;;;;;0.73;100.00;99638.53;4982471;28;20230;-55
2022/11/22 09:18:03;;;;;;;28.27;17.27;;;;;;;1.03;100.00;99648.63;4980097;28;20237;-55
2022/11/22 09:20:30;;;;;;;28.00;18.37;;;;;;;0.93;100.00;99652.75;4978552;28;20237;-55
2022/11/22 09:22:57;;;;;;;31.47;18.27;;;;;;;1.23;100.00;99665.41;4980310;28;20248;-54
2022/11/22 09:25:24;;;;;;;30.83;18.23;;;;;;;0.96;100.00;99657.97;4985063;28;20240;-56
2022/11/22 09:27:51;;;;;;;31.33;18.93;;;;;;;1.26;100.00;99642.16;4983074;28;20790;-55
2022/11/22 09:30:20;;;;;;;31.77;18.13;;;;;;;1.42;100.00;99654.53;4981013;28;20269;-57
2022/11/22 09:32:47;;;;;;;30.37;18.20;;;;;;;1.33;100.00;99638.84;4980943;28;20312;-57
2022/11/22 09:35:19;;;;;;;29.17;18.40;;;;;;;1.64;100.00;99644.56;4985033;28;20232;-54
2022/11/22 09:37:46;;;;;;;29.53;17.57;;;;;;;1.64;100.00;99654.91;4986713;28;20265;-54
2022/11/22 09:40:13;;;;;;;27.07;17.37;;;;;;;1.63;100.00;99646.28;4976774;28;20271;-55
2022/11/22 09:42:50;;;;;;;29.93;18.43;;;;;;;1.44;100.00;99657.19;4978858;28;20269;-56
2022/11/22 09:45:43;;;;;;;27.37;17.43;;;;;;;1.23;100.00;99665.41;4980133;28;20295;-56
2022/11/22 09:48:41;;;;;;;31.20;18.40;;;;;;;1.29;100.00;99664.63;4977673;28;20669;-55
2022/11/22 09:51:11;;;;;;;32.30;18.23;;;;;;;1.14;100.00;99672.97;4980940;28;20727;-55
2022/11/22 09:53:41;;;;;;;27.97;17.37;;;;;;;1.36;100.00;99669.94;4978492;28;20238;-54
2022/11/22 09:56:10;;;;;;;28.43;16.83;;;;;;;1.22;100.00;99679.16;4969813;28;20245;-55
2022/11/22 09:58:41;;;;;;;28.40;17.33;;;;;;;1.57;100.00;99682.41;4984180;28;20392;-55
2022/11/22 10:01:12;;;;;;;34.20;18.50;;;;;;;1.45;100.00;99673.56;4986762;28;20845;-54
2022/11/22 10:03:45;;;;;;;29.23;18.40;;;;;;;1.43;100.00;99676.09;4981974;28;20738;-56
2022/11/22 10:06:18;;;;;;;25.17;17.03;;;;;;;1.37;100.00;99671.72;4975099;28;20240;-54
2022/11/22 10:08:52;;;;;;;34.73;19.00;;;;;;;1.52;100.00;99681.44;4980288;28;20236;-55
2022/11/22 10:11:26;;;;;;;28.77;17.57;;;;;;;1.24;100.00;99674.91;4978416;28;20883;-54
2022/11/22 10:13:57;;;;;;;30.40;18.47;;;;;;;1.51;100.00;99671.06;4982669;28;20241;-55
2022/11/22 10:16:31;;;;;;;31.67;18.87;;;;;;;1.67;100.00;99675.69;4983307;28;20275;-54
2022/11/22 10:19:01;;;;;;;28.47;18.83;;;;;;;1.48;100.00;99673.63;4975423;28;20229;-54
2022/11/22 10:21:28;;;;;;;29.67;17.87;;;;;;;1.42;100.00;99674.38;4984897;28;20327;-55
2022/11/22 10:23:54;;;;;;;29.87;18.83;;;;;;;1.47;100.00;99677.03;4981075;28;20746;-54
2022/11/22 10:26:25;;;;;;;29.10;18.33;;;;;;;1.37;100.00;99676.88;4977316;28;20304;-55
2022/11/22 10:29:00;;;;;;;26.00;17.37;;;;;;;1.53;100.00;99675.44;4969800;28;20332;-54
2022/11/22 10:31:31;;;;;;;34.83;19.40;;;;;;;1.33;100.00;99663.84;4980728;28;20328;-55
2022/11/22 10:34:03;;;;;;;30.03;19.77;;;;;;;1.31;100.00;99669.00;4980894;28;20256;-55
2022/11/22 10:36:37;;;;;;;32.10;19.50;;;;;;;1.41;100.00;99673.50;4986017;28;20234;-55
2022/11/22 10:39:22;;;;;;;28.90;18.77;;;;;;;1.46;100.00;99678.75;4977011;28;20279;-55
2022/11/22 10:42:05;;;;;;;33.40;20.13;;;;;;;1.51;100.00;99682.31;4982704;28;20237;-55
2022/11/22 10:44:41;;;;;;;28.70;18.23;;;;;;;1.45;100.00;99676.16;4982088;28;20304;-56
2022/11/22 10:47:17;;;;;;;31.97;20.47;;;;;;;1.60;100.00;99684.19;4983570;28;20274;-56
2022/11/22 10:49:55;;;;;;;27.60;18.87;;;;;;;1.89;100.00;99687.25;4973635;28;20382;-55
2022/11/22 10:52:28;;;;;;;33.97;20.47;;;;;;;1.71;100.00;99677.47;4984839;28;20309;-57
2022/11/22 10:54:59;;;;;;;31.13;19.07;;;;;;;1.63;100.00;99671.28;4986223;28;20344;-55
2022/11/22 10:57:33;;;;;;;28.57;18.70;;;;;;;1.80;100.00;99672.47;4980807;28;20447;-53
2022/11/22 11:00:16;;;;;;;26.73;17.40;;;;;;;2.09;100.00;99674.66;4983281;28;20234;-55
2022/11/22 11:03:10;;;;;;;28.57;18.90;;;;;;;1.96;100.00;99683.06;4984095;28;21063;-55
2022/11/22 11:05:42;;;;;;;24.60;16.60;;;;;;;2.06;100.00;99675.47;4981993;28;20244;-54
2022/11/22 11:08:10;;;;;;;26.87;18.47;;;;;;;2.41;100.00;99676.88;4979632;28;20228;-56
2022/11/22 11:10:36;;;;;;;29.17;18.60;;;;;;;2.27;100.00;99674.94;4987257;28;20328;-55
2022/11/22 11:13:06;;;;;;;25.63;17.07;;;;;;;2.37;100.00;99673.38;4987235;28;21145;-55
2022/11/22 11:15:35;;;;;;;24.80;16.13;;;;;;;2.10;100.00;99664.31;4986776;28;20237;-57
2022/11/22 11:18:07;;;;;;;30.70;18.10;;;;;;;2.01;100.00;99660.72;4991375;28;20264;-57
2022/11/22 11:20:37;;;;;;;34.67;18.27;;;;;;;2.04;100.00;99650.44;4989956;28;20239;-55
2022/11/22 11:23:03;;;;;;;31.07;19.20;;;;;;;1.88;100.00;99654.47;4984557;28;20277;-56
2022/11/22 11:25:31;;;;;;;22.43;16.10;;;;;;;2.15;100.00;99654.91;4984940;28;20267;-56
2022/11/22 11:28:01;;;;;;;32.13;18.03;;;;;;;2.17;100.00;99647.16;4984389;28;20236;-56
2022/11/22 11:30:28;;;;;;;26.30;17.60;;;;;;;2.38;100.00;99642.28;4976886;28;20253;-55
2022/11/22 11:32:56;;;;;;;26.73;16.90;;;;;;;2.29;100.00;99646.50;4979628;28;20238;-56
2022/11/22 11:35:27;;;;;;;31.03;17.83;;;;;;;2.34;100.00;99637.06;4982717;28;20241;-57
2022/11/22 11:37:54;;;;;;;28.60;16.27;;;;;;;2.18;100.00;99638.56;4984071;28;20749;-56